Airfield :







YOU CAN JOIN US ON...

 
LOGIN :

Register | Disclaimer

   EN    FR    IT 

 









Legend :    VFR   Marginal VFR   IFR   Intensive IFR   Very Intensive IFR
Visi :
Ceiling :
>= 8 km
>= 3000ft
5 to 8 km
1000 to 3000 ft
1500m to 5 km
500 to 1000 ft
800 to 1500m
200 to 500 ft
< 800m
< 200 ft
Symbols :   Thunderstorms  Fog  Heavy snow  Heavy precipitations  Wind > 20 kt







- Airport Elevation : 90 ft
- IATA code : YHU


CYHU - Montréal Saint-Hubert

CURRENT METAR :
  • 250100Z AUTO 12004KT 9SM CLR 20/06 A2981 RMK SLP095 DENSITY ALT 800FT

EXPIRED METARs :
  • 250000Z AUTO 11005KT 9SM CLR 22/07 A2981 RMK SLP097 DENSITY ALT 1000FT
  • 242300Z AUTO 15006KT 9SM CLR 24/09 A2982 RMK SLP100 DENSITY ALT 1200FT

TAF TAF CYHU
Valid from the 25 at 00:00 until the 26 at 00:00 UTC


242338Z 2500/2524 10005KT P6SM SCT160 BKN200
FM250800 06006KT P6SM BKN080 OVC200
FM251200 10008KT P6SM -SHRA OVC050
FM251300 10010KT P6SM -SHRA BKN025 OVC050
TEMPO 2513/2518 3SM SHRA BR VCTS OVC015CB
BECMG 2515/2517 14012G22KT
FM252100 16010KT P6SM -SHRA BKN012 OVC040
FM252300 21010KT P6SM -SHRA SCT015 BKN040 RMK FCST BASED ON AUTO OBS. NXT FCST BY 250600Z
CZUL FIR / North America



MET'MAP, your aeronautical weather chart ! - Copyright ORBIFLY December 2007 - Disclaimer

ORBIFLY MET'MAP TEAM :

Programming & Development : Alexandra Zaïnal
Concept & Development : Baudouin d'Aumeries
Co-Development & Prog : Marc-Olivier Méhu
Technical & hardware support : Manuel Goepfert

Contact : metmap@orbifly.com




SOURCES & CREDITS :

   NOAA